createdAt,value
2019-01-28T00:01:11.540Z,5.34
2019-01-28T00:03:40.188Z,5.22
2019-01-28T00:06:08.302Z,5.13
2019-01-28T00:08:36.382Z,5.05
2019-01-28T00:11:04.451Z,4.96
2019-01-28T00:13:32.529Z,4.87
2019-01-28T00:16:00.578Z,4.83
2019-01-28T00:18:28.668Z,4.80
2019-01-28T00:20:56.732Z,4.75
2019-01-28T00:23:24.846Z,4.77
2019-01-28T00:25:52.942Z,4.68
2019-01-28T00:28:21.008Z,4.60
2019-01-28T00:30:49.077Z,4.54
2019-01-28T00:33:17.247Z,4.50
2019-01-28T00:35:45.332Z,4.50
2019-01-28T00:38:13.389Z,4.52
2019-01-28T00:40:41.478Z,4.49
2019-01-28T00:43:09.823Z,4.52
2019-01-28T00:45:37.873Z,4.56
2019-01-28T00:48:05.927Z,4.59
2019-01-28T00:50:35.515Z,4.60
2019-01-28T00:53:03.864Z,4.62
2019-01-28T00:55:31.923Z,4.61
2019-01-28T00:57:59.974Z,4.63
2019-01-28T01:00:28.283Z,4.63
2019-01-28T01:02:58.615Z,4.59
2019-01-28T01:05:28.158Z,4.58
2019-01-28T01:07:56.239Z,4.54
2019-01-28T01:10:25.348Z,4.52
2019-01-28T01:12:57.869Z,4.53
2019-01-28T01:15:25.968Z,4.52
2019-01-28T01:17:54.074Z,4.51
2019-01-28T01:20:22.146Z,4.53
2019-01-28T01:22:50.238Z,4.55
2019-01-28T01:25:18.343Z,4.53
2019-01-28T01:27:46.390Z,4.56
2019-01-28T01:30:16.058Z,4.56
2019-01-28T01:32:46.215Z,4.54
2019-01-28T01:35:15.045Z,4.55
2019-01-28T01:37:43.117Z,4.55
2019-01-28T01:40:14.081Z,4.57
2019-01-28T01:42:42.164Z,4.61
2019-01-28T01:45:14.426Z,4.64
2019-01-28T01:47:42.502Z,4.65
2019-01-28T01:50:11.062Z,4.65
2019-01-28T01:52:39.119Z,4.66
2019-01-28T01:55:09.318Z,4.69
2019-01-28T01:57:40.174Z,4.70
2019-01-28T02:00:14.969Z,4.70
2019-01-28T02:02:43.087Z,4.75
2019-01-28T02:05:12.984Z,4.77
2019-01-28T02:07:41.633Z,4.79
2019-01-28T02:10:13.368Z,4.83
2019-01-28T02:12:41.458Z,4.84
2019-01-28T02:15:13.206Z,4.87
2019-01-28T02:17:41.279Z,4.87
2019-01-28T02:20:09.419Z,4.87
2019-01-28T02:22:37.933Z,4.87
2019-01-28T02:25:08.522Z,4.88
2019-01-28T02:27:36.687Z,4.91
2019-01-28T02:30:06.194Z,4.90
2019-01-28T02:32:34.514Z,4.91
2019-01-28T02:35:02.858Z,4.92
2019-01-28T02:37:30.909Z,4.96
2019-01-28T02:39:58.998Z,4.99
2019-01-28T02:42:28.060Z,5.00
2019-01-28T02:44:56.137Z,5.00
2019-01-28T02:47:24.176Z,5.01
2019-01-28T02:49:54.175Z,5.01
2019-01-28T02:52:22.539Z,5.02
2019-01-28T02:54:50.601Z,5.03
2019-01-28T02:57:18.668Z,5.04
2019-01-28T02:59:46.679Z,5.06
2019-01-28T03:02:14.762Z,5.09
2019-01-28T03:04:42.806Z,5.07
2019-01-28T03:07:10.815Z,5.06
2019-01-28T03:09:38.851Z,5.06
2019-01-28T03:12:06.901Z,5.08
2019-01-28T03:14:34.971Z,5.10
2019-01-28T03:17:09.218Z,5.12
2019-01-28T03:19:37.518Z,5.11
2019-01-28T03:22:05.630Z,5.11
2019-01-28T03:24:33.679Z,5.12
2019-01-28T03:27:01.859Z,5.09
2019-01-28T03:29:29.921Z,5.10
2019-01-28T03:31:58.079Z,5.07
2019-01-28T03:34:26.177Z,5.05
2019-01-28T03:36:54.257Z,5.02
2019-01-28T03:39:22.359Z,5.01
2019-01-28T03:41:50.392Z,4.99
2019-01-28T03:44:18.441Z,5.00
2019-01-28T03:46:46.542Z,5.00
2019-01-28T03:49:14.634Z,5.02
2019-01-28T03:51:42.793Z,5.01
2019-01-28T03:54:11.267Z,5.00
2019-01-28T03:56:39.966Z,4.97
2019-01-28T03:59:08.023Z,4.94
2019-01-28T04:01:36.097Z,4.93
2019-01-28T04:04:04.468Z,4.96
2019-01-28T04:06:32.791Z,4.95
2019-01-28T04:09:00.852Z,4.93
2019-01-28T04:11:28.890Z,4.90
2019-01-28T04:13:56.963Z,4.91
2019-01-28T04:16:27.757Z,4.91
2019-01-28T04:18:56.092Z,4.94
2019-01-28T04:21:24.266Z,4.93
2019-01-28T04:23:52.269Z,4.89
2019-01-28T04:26:21.777Z,4.91
2019-01-28T04:28:52.647Z,4.91
2019-01-28T04:31:20.675Z,4.91
2019-01-28T04:33:48.720Z,4.93
2019-01-28T04:36:16.764Z,4.91
2019-01-28T04:38:44.834Z,4.92
2019-01-28T04:41:12.994Z,4.94
2019-01-28T04:43:41.104Z,4.93
2019-01-28T04:46:09.178Z,4.95
2019-01-28T04:48:40.137Z,4.96
2019-01-28T04:51:08.203Z,4.97
2019-01-28T04:53:36.572Z,4.97
2019-01-28T04:56:04.637Z,4.98
2019-01-28T04:58:33.318Z,4.99
2019-01-28T05:01:04.339Z,5.02
2019-01-28T05:03:34.364Z,5.05
2019-01-28T05:06:02.523Z,5.03
2019-01-28T05:08:31.548Z,5.02
2019-01-28T05:10:59.724Z,5.04
2019-01-28T05:13:27.787Z,5.05
2019-01-28T05:15:55.878Z,5.06
2019-01-28T05:18:23.932Z,5.06
2019-01-28T05:20:53.074Z,5.04
2019-01-28T05:23:21.216Z,5.05
2019-01-28T05:25:49.358Z,5.07
2019-01-28T05:28:17.746Z,5.09
2019-01-28T05:30:45.873Z,5.08
2019-01-28T05:33:18.518Z,5.06
2019-01-28T05:35:47.565Z,5.09
2019-01-28T05:38:15.610Z,5.08
2019-01-28T05:40:43.734Z,5.09
2019-01-28T05:43:11.664Z,5.07
2019-01-28T05:45:39.740Z,5.06
2019-01-28T05:48:07.753Z,5.08
2019-01-28T05:50:35.906Z,5.09
2019-01-28T05:53:03.944Z,5.11
2019-01-28T05:55:33.014Z,5.11
2019-01-28T05:58:01.231Z,5.10
2019-01-28T06:00:41.112Z,5.11
2019-01-28T06:03:09.161Z,5.11
2019-01-28T06:05:37.326Z,5.14
2019-01-28T06:08:05.552Z,5.12
2019-01-28T06:10:33.653Z,5.10
2019-01-28T06:13:02.009Z,5.12
2019-01-28T06:15:31.565Z,5.14
2019-01-28T06:17:59.751Z,5.13
2019-01-28T06:20:27.821Z,5.13
2019-01-28T06:22:55.892Z,5.12
2019-01-28T06:25:23.966Z,5.10
2019-01-28T06:27:52.029Z,5.09
2019-01-28T06:30:26.306Z,5.12
2019-01-28T06:32:54.402Z,5.12
2019-01-28T06:35:22.449Z,5.13
2019-01-28T06:37:50.488Z,5.12
2019-01-28T06:40:25.106Z,5.11
2019-01-28T06:42:53.204Z,5.10
2019-01-28T06:45:21.496Z,5.13
2019-01-28T06:47:49.761Z,5.13
2019-01-28T06:50:19.278Z,5.13
2019-01-28T06:52:47.384Z,5.11
2019-01-28T06:55:15.649Z,5.11
2019-01-28T06:57:44.050Z,5.12
2019-01-28T07:00:24.789Z,5.13
2019-01-28T07:02:52.907Z,5.13
2019-01-28T07:05:21.080Z,5.12
2019-01-28T07:07:49.179Z,5.13
2019-01-28T07:10:17.520Z,5.11
2019-01-28T07:12:45.575Z,5.12
2019-01-28T07:15:15.352Z,5.11
2019-01-28T07:17:43.420Z,5.09
2019-01-28T07:20:16.002Z,5.07
2019-01-28T07:22:44.127Z,5.10
2019-01-28T07:25:13.184Z,5.13
2019-01-28T07:27:41.262Z,5.12
2019-01-28T07:30:17.189Z,5.12
2019-01-28T07:32:45.514Z,5.14
2019-01-28T07:35:13.862Z,5.11
2019-01-28T07:37:41.900Z,5.11
2019-01-28T07:40:10.729Z,5.11
2019-01-28T07:42:38.799Z,5.10
2019-01-28T07:45:13.660Z,5.11
2019-01-28T07:47:41.627Z,5.12
2019-01-28T07:50:11.489Z,5.14
2019-01-28T07:52:41.241Z,5.15
2019-01-28T07:55:09.782Z,5.17
2019-01-28T07:57:37.804Z,5.16
2019-01-28T08:00:10.616Z,5.18
2019-01-28T08:02:38.668Z,5.20
2019-01-28T08:05:08.592Z,5.19
2019-01-28T08:07:36.978Z,5.19
2019-01-28T08:10:07.096Z,5.21
2019-01-28T08:12:35.374Z,5.24
2019-01-28T08:15:05.002Z,5.27
2019-01-28T08:17:33.011Z,5.26
2019-01-28T08:20:01.096Z,5.29
2019-01-28T08:22:29.198Z,5.30
2019-01-28T08:24:57.259Z,5.32
2019-01-28T08:27:25.372Z,5.34
2019-01-28T08:29:53.418Z,5.33
2019-01-28T08:32:21.438Z,5.30
2019-01-28T08:34:49.615Z,5.32
2019-01-28T08:37:17.760Z,5.34
2019-01-28T08:39:45.817Z,5.39
2019-01-28T08:42:14.926Z,5.42
2019-01-28T08:44:43.032Z,5.42
2019-01-28T08:47:11.233Z,5.45
2019-01-28T08:49:39.244Z,5.51
2019-01-28T08:52:07.312Z,5.52
2019-01-28T08:54:35.365Z,5.51
2019-01-28T08:57:03.457Z,5.53
2019-01-28T08:59:31.499Z,5.53
2019-01-28T09:01:59.512Z,5.52
2019-01-28T09:04:27.525Z,5.55
2019-01-28T09:06:55.559Z,5.59
2019-01-28T09:09:23.940Z,5.64
2019-01-28T09:11:52.057Z,5.67
2019-01-28T09:14:20.038Z,5.71
2019-01-28T09:16:48.071Z,5.71
2019-01-28T09:19:16.096Z,5.72
2019-01-28T09:21:44.085Z,5.74
2019-01-28T09:24:12.110Z,5.80
2019-01-28T09:26:40.162Z,5.83
2019-01-28T09:29:08.966Z,5.86
2019-01-28T09:31:37.111Z,5.89
2019-01-28T09:34:05.140Z,5.93
2019-01-28T09:36:33.161Z,5.96
2019-01-28T09:39:01.330Z,5.98
2019-01-28T09:41:29.310Z,6.00
2019-01-28T09:43:57.324Z,6.01
2019-01-28T09:46:25.349Z,6.05
2019-01-28T09:48:53.358Z,6.08
2019-01-28T09:51:21.371Z,6.08
2019-01-28T09:53:49.371Z,6.12
2019-01-28T09:56:17.378Z,6.15
2019-01-28T09:58:45.493Z,6.18
2019-01-28T10:01:13.582Z,6.22
2019-01-28T10:03:41.683Z,6.24
2019-01-28T10:06:09.774Z,6.28
2019-01-28T10:08:37.786Z,6.29
2019-01-28T10:11:05.852Z,6.29
2019-01-28T10:13:34.175Z,6.31
2019-01-28T10:16:02.333Z,6.32
2019-01-28T10:18:30.436Z,6.34
2019-01-28T10:20:58.663Z,6.40
2019-01-28T10:23:26.831Z,6.43
2019-01-28T10:25:57.772Z,6.44
2019-01-28T10:28:25.025Z,6.47
2019-01-28T10:30:53.459Z,6.47
2019-01-28T10:33:21.528Z,6.47
2019-01-28T10:35:49.856Z,6.52
2019-01-28T10:38:18.335Z,6.58
2019-01-28T10:40:47.070Z,6.58
2019-01-28T10:43:15.119Z,6.58
2019-01-28T10:45:43.464Z,6.60
2019-01-28T10:48:12.494Z,6.58
2019-01-28T10:50:43.015Z,6.56
2019-01-28T10:53:11.310Z,6.61
2019-01-28T10:55:39.834Z,6.62
2019-01-28T10:58:07.890Z,6.64
2019-01-28T11:00:45.665Z,6.65
2019-01-28T11:03:17.030Z,6.67
2019-01-28T11:05:45.077Z,6.68
2019-01-28T11:08:13.155Z,6.70
2019-01-28T11:10:41.461Z,6.73
2019-01-28T11:13:12.012Z,6.76
2019-01-28T11:15:40.180Z,6.79
2019-01-28T11:18:16.456Z,6.77
2019-01-28T11:20:44.749Z,6.81
2019-01-28T11:23:12.830Z,6.83
2019-01-28T11:25:42.155Z,6.87
2019-01-28T11:28:11.629Z,6.87
2019-01-28T11:30:45.892Z,6.90
2019-01-28T11:33:14.438Z,6.89
2019-01-28T11:35:43.284Z,6.87
2019-01-28T11:38:12.374Z,6.87
2019-01-28T11:40:40.449Z,6.89
2019-01-28T11:43:08.652Z,6.88
2019-01-28T11:45:41.474Z,6.89
2019-01-28T11:48:09.761Z,6.84
2019-01-28T11:50:39.127Z,6.81
2019-01-28T11:53:07.504Z,6.81
2019-01-28T11:55:36.057Z,6.80
2019-01-28T11:58:05.296Z,6.82
2019-01-28T12:00:44.006Z,6.86
2019-01-28T12:03:12.072Z,6.86
2019-01-28T12:05:40.452Z,6.82
2019-01-28T12:08:08.758Z,6.87
2019-01-28T12:10:38.257Z,6.90
2019-01-28T12:13:07.544Z,6.95
2019-01-28T12:15:35.647Z,6.96
2019-01-28T12:18:06.088Z,6.94
2019-01-28T12:20:34.310Z,6.92
2019-01-28T12:23:02.480Z,6.92
2019-01-28T12:25:31.807Z,6.92
2019-01-28T12:27:59.883Z,6.94
2019-01-28T12:30:28.620Z,6.89
2019-01-28T12:32:56.800Z,6.89
2019-01-28T12:35:26.078Z,6.90
2019-01-28T12:37:54.139Z,6.91
2019-01-28T12:40:22.520Z,6.88
2019-01-28T12:42:50.535Z,6.87
2019-01-28T12:45:19.487Z,6.83
2019-01-28T12:47:48.308Z,6.87
2019-01-28T12:50:17.318Z,6.82
2019-01-28T12:52:45.542Z,6.73
2019-01-28T12:55:15.912Z,6.67
2019-01-28T12:57:44.253Z,6.69
2019-01-28T13:00:20.028Z,6.66
2019-01-28T13:02:48.171Z,6.66
2019-01-28T13:05:19.320Z,6.59
2019-01-28T13:07:47.458Z,6.60
2019-01-28T13:10:18.942Z,6.60
2019-01-28T13:12:48.282Z,6.58
2019-01-28T13:15:25.297Z,6.60
2019-01-28T13:17:54.389Z,6.63
2019-01-28T13:20:23.281Z,6.65
2019-01-28T13:22:51.597Z,6.62
2019-01-28T13:25:21.421Z,6.59
2019-01-28T13:27:49.820Z,6.59
2019-01-28T13:30:21.651Z,6.60
2019-01-28T13:32:50.853Z,6.62
2019-01-28T13:35:18.884Z,6.63
2019-01-28T13:37:47.055Z,6.63
2019-01-28T13:40:15.520Z,6.60
2019-01-28T13:42:44.538Z,6.60
2019-01-28T13:45:15.079Z,6.61
2019-01-28T13:47:43.311Z,6.63
2019-01-28T13:50:14.994Z,6.62
2019-01-28T13:52:43.799Z,6.61
2019-01-28T13:55:12.851Z,6.59
2019-01-28T13:57:41.185Z,6.58
2019-01-28T14:00:15.770Z,6.56
2019-01-28T14:02:44.563Z,6.54
2019-01-28T14:05:13.046Z,6.49
2019-01-28T14:07:41.744Z,6.44
2019-01-28T14:10:11.455Z,6.44
2019-01-28T14:12:39.664Z,6.45
2019-01-28T14:15:21.853Z,6.45
2019-01-28T14:17:50.147Z,6.41
2019-01-28T14:20:18.776Z,6.42
2019-01-28T14:22:46.961Z,6.39
2019-01-28T14:25:15.622Z,6.37
2019-01-28T14:27:49.730Z,6.40
2019-01-28T14:30:33.301Z,6.38
2019-01-28T14:33:02.365Z,6.38
2019-01-28T14:35:31.019Z,6.38
2019-01-28T14:38:00.208Z,6.40
2019-01-28T14:40:28.505Z,6.42
2019-01-28T14:42:56.663Z,6.41
2019-01-28T14:45:25.979Z,6.35
2019-01-28T14:47:54.080Z,6.32
2019-01-28T14:50:28.797Z,6.33
2019-01-28T14:52:56.854Z,6.31
2019-01-28T14:55:25.207Z,6.26
2019-01-28T14:57:53.585Z,6.25
2019-01-28T15:00:28.586Z,6.24
2019-01-28T15:03:05.656Z,6.21
2019-01-28T15:05:46.533Z,6.21
2019-01-28T15:08:14.713Z,6.24
2019-01-28T15:10:43.099Z,6.24
2019-01-28T15:13:11.535Z,6.25
2019-01-28T15:15:40.004Z,6.23
2019-01-28T15:18:11.758Z,6.24
2019-01-28T15:20:39.824Z,6.24
2019-01-28T15:23:07.804Z,6.24
2019-01-28T15:25:36.006Z,6.26
2019-01-28T15:28:04.251Z,6.26
2019-01-28T15:30:32.385Z,6.28
2019-01-28T15:33:00.486Z,6.26
2019-01-28T15:35:28.671Z,6.24
2019-01-28T15:37:56.733Z,6.21
2019-01-28T15:40:28.093Z,6.18
2019-01-28T15:42:56.166Z,6.14
2019-01-28T15:45:27.538Z,6.12
2019-01-28T15:47:56.197Z,6.09
2019-01-28T15:50:24.464Z,6.09
2019-01-28T15:52:52.653Z,6.03
2019-01-28T15:55:25.214Z,6.04
2019-01-28T15:57:54.519Z,6.04
2019-01-28T16:00:26.007Z,6.06
2019-01-28T16:02:54.332Z,6.05
2019-01-28T16:05:22.477Z,6.05
2019-01-28T16:07:50.982Z,6.06
2019-01-28T16:10:19.105Z,6.06
2019-01-28T16:12:47.557Z,6.07
2019-01-28T16:15:28.770Z,6.05
2019-01-28T16:17:56.947Z,6.06
2019-01-28T16:20:26.545Z,6.03
2019-01-28T16:22:54.913Z,6.03
2019-01-28T16:25:23.209Z,6.02
2019-01-28T16:27:51.918Z,6.04
2019-01-28T16:30:26.427Z,6.02
2019-01-28T16:32:54.002Z,5.99
2019-01-28T16:35:22.425Z,5.98
2019-01-28T16:37:51.444Z,6.00
2019-01-28T16:40:21.846Z,6.00
2019-01-28T16:42:50.235Z,6.01
2019-01-28T16:45:19.104Z,5.98
2019-01-28T16:47:47.423Z,5.96
2019-01-28T16:50:26.825Z,5.98
2019-01-28T16:52:50.096Z,5.98
2019-01-28T16:55:18.144Z,5.98
2019-01-28T16:57:48.831Z,5.99
2019-01-28T17:00:26.714Z,6.00
2019-01-28T17:02:54.919Z,6.00
2019-01-28T17:05:23.482Z,5.98
2019-01-28T17:07:51.743Z,5.99
2019-01-28T17:10:19.787Z,5.99
2019-01-28T17:12:47.949Z,6.00
2019-01-28T17:15:17.244Z,6.02
2019-01-28T17:17:45.703Z,6.02
2019-01-28T17:20:18.260Z,6.06
2019-01-28T17:22:47.177Z,6.07
2019-01-28T17:25:19.126Z,6.08
2019-01-28T17:27:49.140Z,6.05
2019-01-28T17:30:35.854Z,6.05
2019-01-28T17:33:05.233Z,6.04
2019-01-28T17:35:33.900Z,6.05
2019-01-28T17:38:02.115Z,6.04
2019-01-28T17:40:30.613Z,6.02
2019-01-28T17:42:58.759Z,6.00
2019-01-28T17:45:27.688Z,6.00
2019-01-28T17:47:55.972Z,6.02
2019-01-28T17:50:25.023Z,6.00
2019-01-28T17:52:53.386Z,5.99
2019-01-28T17:55:21.594Z,5.97
2019-01-28T17:57:51.558Z,5.94
2019-01-28T18:00:29.839Z,5.92
2019-01-28T18:02:58.160Z,5.92
2019-01-28T18:05:26.308Z,5.89
2019-01-28T18:07:55.056Z,5.87
2019-01-28T18:10:24.105Z,5.90
2019-01-28T18:12:52.132Z,5.92
2019-01-28T18:15:20.210Z,5.94
2019-01-28T18:17:48.344Z,5.92
2019-01-28T18:20:17.532Z,5.93
2019-01-28T18:22:46.585Z,5.93
2019-01-28T18:25:22.103Z,5.93
2019-01-28T18:27:50.172Z,5.95
2019-01-28T18:30:31.717Z,5.92
2019-01-28T18:33:00.896Z,5.93
2019-01-28T18:35:29.059Z,5.92
2019-01-28T18:37:57.221Z,5.91
2019-01-28T18:40:25.266Z,5.89
2019-01-28T18:42:53.468Z,5.92
2019-01-28T18:45:21.736Z,5.95
2019-01-28T18:47:49.892Z,5.95
2019-01-28T18:50:18.557Z,5.96
2019-01-28T18:52:48.407Z,5.98
2019-01-28T18:55:16.794Z,5.98
2019-01-28T18:57:44.846Z,5.96
2019-01-28T19:00:17.523Z,5.98
2019-01-28T19:02:48.133Z,6.00
2019-01-28T19:05:42.965Z,6.00
2019-01-28T19:08:17.390Z,6.04
2019-01-28T19:11:07.187Z,6.01
2019-01-28T19:13:44.438Z,6.01
2019-01-28T19:16:47.240Z,6.01
2019-01-28T19:19:35.171Z,6.04
2019-01-28T19:22:04.260Z,6.04
2019-01-28T19:24:33.675Z,6.03
2019-01-28T19:27:01.708Z,6.05
2019-01-28T19:29:29.829Z,6.07
2019-01-28T19:31:57.980Z,6.09
2019-01-28T19:34:26.053Z,6.11
2019-01-28T19:36:54.120Z,6.12
2019-01-28T19:39:23.150Z,6.12
2019-01-28T19:41:51.178Z,6.13
2019-01-28T19:44:19.340Z,6.13
2019-01-28T19:46:48.451Z,6.16
2019-01-28T19:49:16.795Z,6.18
2019-01-28T19:51:44.868Z,6.20
2019-01-28T19:54:12.949Z,6.22
2019-01-28T19:56:41.245Z,6.23
2019-01-28T19:59:09.417Z,6.26
2019-01-28T20:01:37.780Z,6.28
2019-01-28T20:04:07.008Z,6.30
2019-01-28T20:06:35.015Z,6.31
2019-01-28T20:09:07.064Z,6.30
2019-01-28T20:11:36.365Z,6.26
2019-01-28T20:14:04.653Z,6.25
2019-01-28T20:16:32.871Z,6.23
2019-01-28T20:19:01.384Z,6.21
2019-01-28T20:21:29.951Z,6.19
2019-01-28T20:23:58.286Z,6.17
2019-01-28T20:26:27.014Z,6.17
2019-01-28T20:28:56.147Z,6.17
2019-01-28T20:31:25.431Z,6.18
2019-01-28T20:33:53.439Z,6.18
2019-01-28T20:36:21.831Z,6.20
2019-01-28T20:38:49.919Z,6.21
2019-01-28T20:41:19.193Z,6.21
2019-01-28T20:43:47.622Z,6.23
2019-01-28T20:46:16.271Z,6.24
2019-01-28T20:48:44.375Z,6.22
2019-01-28T20:51:12.659Z,6.21
2019-01-28T20:53:40.668Z,6.20
2019-01-28T20:56:08.967Z,6.22
2019-01-28T20:58:38.565Z,6.21
2019-01-28T21:01:06.913Z,6.21
2019-01-28T21:03:35.863Z,6.22
2019-01-28T21:06:05.227Z,6.21
2019-01-28T21:08:33.252Z,6.21
2019-01-28T21:11:01.812Z,6.21
2019-01-28T21:13:30.153Z,6.21
2019-01-28T21:15:58.871Z,6.21
2019-01-28T21:18:27.093Z,6.19
2019-01-28T21:29:36.149Z,6.14
2019-01-28T21:32:04.410Z,6.11
2019-01-28T21:34:32.465Z,6.07
2019-01-28T21:37:18.490Z,6.05
2019-01-28T21:39:46.638Z,6.01
2019-01-28T21:42:14.666Z,5.98
2019-01-28T21:44:42.748Z,5.95
2019-01-28T21:47:11.043Z,5.94
2019-01-28T21:49:39.142Z,5.92
2019-01-28T21:52:08.411Z,5.90
2019-01-28T21:54:36.466Z,5.88
2019-01-28T21:57:05.314Z,5.86
2019-01-28T21:59:34.543Z,5.84
2019-01-28T22:02:03.133Z,5.82
2019-01-28T22:04:31.519Z,5.78
2019-01-28T22:06:59.758Z,5.74
2019-01-28T22:09:27.775Z,5.73
2019-01-28T22:11:55.980Z,5.71
2019-01-28T22:14:24.078Z,5.69
2019-01-28T22:16:52.139Z,5.66
2019-01-28T22:19:20.469Z,5.62
2019-01-28T22:21:48.698Z,5.60
2019-01-28T22:24:16.847Z,5.56
2019-01-28T22:26:45.281Z,5.53
2019-01-28T22:29:13.615Z,5.50
2019-01-28T22:31:41.667Z,5.46
2019-01-28T22:34:09.665Z,5.43
2019-01-28T22:36:37.720Z,5.40
2019-01-28T22:39:08.615Z,5.37
2019-01-28T22:41:36.763Z,5.35
2019-01-28T22:44:04.908Z,5.32
2019-01-28T22:46:33.029Z,5.28
2019-01-28T22:49:01.296Z,5.26
2019-01-28T22:51:29.387Z,5.22
2019-01-28T22:53:57.362Z,5.21
2019-01-28T22:56:25.434Z,5.19
2019-01-28T22:58:53.455Z,5.18
2019-01-28T23:01:29.319Z,5.15
2019-01-28T23:03:57.407Z,5.11
2019-01-28T23:06:25.447Z,5.09
2019-01-28T23:08:53.518Z,5.08
2019-01-28T23:11:21.530Z,5.06
2019-01-28T23:13:49.811Z,5.03
2019-01-28T23:16:17.924Z,5.01
2019-01-28T23:18:46.308Z,4.97
2019-01-28T23:21:15.357Z,4.96
2019-01-28T23:23:43.323Z,4.97
2019-01-28T23:26:11.391Z,4.98
2019-01-28T23:28:39.403Z,4.99
2019-01-28T23:31:07.579Z,5.00
2019-01-28T23:33:35.864Z,5.01
2019-01-28T23:36:04.148Z,5.01
2019-01-28T23:38:32.214Z,5.00
2019-01-28T23:41:00.199Z,4.97
2019-01-28T23:43:28.266Z,4.98
2019-01-28T23:45:56.516Z,4.97
2019-01-28T23:48:24.518Z,4.97
2019-01-28T23:50:52.530Z,4.96
2019-01-28T23:53:20.573Z,4.96
2019-01-28T23:55:48.567Z,4.96
2019-01-28T23:58:16.581Z,4.97
